createdAt,value
2019-05-20T00:00:31.334Z,18.80
2019-05-20T00:03:00.059Z,18.80
2019-05-20T00:05:28.777Z,18.70
2019-05-20T00:07:57.531Z,18.70
2019-05-20T00:10:26.341Z,18.70
2019-05-20T00:12:55.041Z,18.70
2019-05-20T00:15:23.787Z,18.70
2019-05-20T00:17:52.805Z,18.70
2019-05-20T00:20:21.417Z,18.80
2019-05-20T00:22:50.099Z,18.80
2019-05-20T00:25:18.942Z,18.80
2019-05-20T00:27:47.817Z,18.70
2019-05-20T00:30:17.445Z,18.80
2019-05-20T00:32:46.312Z,18.80
2019-05-20T00:35:15.174Z,18.80
2019-05-20T00:37:44.056Z,18.80
2019-05-20T00:40:13.033Z,18.80
2019-05-20T00:42:41.830Z,18.80
2019-05-20T00:45:12.099Z,18.80
2019-05-20T00:47:40.889Z,18.90
2019-05-20T00:50:10.794Z,18.90
2019-05-20T00:52:39.624Z,18.90
2019-05-20T00:55:10.178Z,19.00
2019-05-20T00:57:40.125Z,19.00
2019-05-20T01:00:09.818Z,19.00
2019-05-20T01:02:38.549Z,19.00
2019-05-20T01:05:07.466Z,19.10
2019-05-20T01:07:36.220Z,19.10
2019-05-20T01:10:06.527Z,19.10
2019-05-20T01:12:35.324Z,19.10
2019-05-20T01:15:04.920Z,19.20
2019-05-20T01:17:33.716Z,19.20
2019-05-20T01:20:02.790Z,19.20
2019-05-20T01:22:31.580Z,19.20
2019-05-20T01:25:00.399Z,19.20
2019-05-20T01:27:29.299Z,19.20
2019-05-20T01:29:58.164Z,19.20
2019-05-20T01:32:26.954Z,19.20
2019-05-20T01:34:55.732Z,19.20
2019-05-20T01:37:24.563Z,19.20
2019-05-20T01:39:53.365Z,19.20
2019-05-20T01:42:22.200Z,19.20
2019-05-20T01:44:51.011Z,19.20
2019-05-20T01:47:19.856Z,19.20
2019-05-20T01:49:48.758Z,19.20
2019-05-20T01:52:17.541Z,19.20
2019-05-20T01:54:46.394Z,19.20
2019-05-20T01:57:15.209Z,19.10
2019-05-20T01:59:44.011Z,19.10
2019-05-20T02:02:12.762Z,19.10
2019-05-20T02:04:41.651Z,18.90
2019-05-20T02:07:10.410Z,18.90
2019-05-20T02:09:39.297Z,18.90
2019-05-20T02:12:08.099Z,18.90
2019-05-20T02:14:47.591Z,18.90
2019-05-20T02:17:17.635Z,18.90
2019-05-20T02:19:46.409Z,19.00
2019-05-20T02:22:15.331Z,19.00
2019-05-20T02:24:44.237Z,19.20
2019-05-20T02:27:13.005Z,19.40
2019-05-20T02:29:41.805Z,19.70
2019-05-20T02:32:10.602Z,20.00
2019-05-20T02:34:39.515Z,20.50
2019-05-20T02:37:08.368Z,21.10
2019-05-20T02:39:37.250Z,21.60
2019-05-20T02:42:06.084Z,21.70
2019-05-20T02:44:34.875Z,21.70
2019-05-20T02:47:03.752Z,22.00
2019-05-20T02:49:32.603Z,22.20
2019-05-20T02:52:01.396Z,22.30
2019-05-20T02:54:30.270Z,22.20
2019-05-20T02:56:59.117Z,21.80
2019-05-20T02:59:27.875Z,21.40
2019-05-20T03:01:56.754Z,21.10
2019-05-20T03:04:25.661Z,20.80
2019-05-20T03:06:54.446Z,20.60
2019-05-20T03:09:23.223Z,20.40
2019-05-20T03:11:52.026Z,20.20
2019-05-20T03:14:20.776Z,20.10
2019-05-20T03:16:49.668Z,20.00
2019-05-20T03:19:18.473Z,19.90
2019-05-20T03:21:47.337Z,19.80
2019-05-20T03:24:16.287Z,19.80
2019-05-20T03:26:45.183Z,19.60
2019-05-20T03:29:14.548Z,19.60
2019-05-20T03:31:43.436Z,19.50
2019-05-20T03:34:40.895Z,19.50
2019-05-20T03:36:42.713Z,19.50
2019-05-20T03:39:11.620Z,19.50
2019-05-20T03:41:40.404Z,19.50
2019-05-20T03:44:09.195Z,19.40
2019-05-20T03:46:38.052Z,19.40
2019-05-20T03:49:06.831Z,19.30
2019-05-20T03:55:07.748Z,19.20
2019-05-20T03:57:36.560Z,19.20
2019-05-20T04:00:06.631Z,19.10
2019-05-20T04:02:35.570Z,19.10
2019-05-20T04:05:04.965Z,19.10
2019-05-20T04:07:33.754Z,19.00
2019-05-20T04:10:02.622Z,19.00
2019-05-20T04:12:31.362Z,18.90
2019-05-20T04:15:00.150Z,18.80
2019-05-20T04:17:29.007Z,18.80
2019-05-20T04:19:57.951Z,18.80
2019-05-20T04:22:26.851Z,18.80
2019-05-20T04:24:57.318Z,18.80
2019-05-20T04:27:26.143Z,18.80
2019-05-20T04:29:54.927Z,18.80
2019-05-20T04:32:23.701Z,18.80
2019-05-20T04:34:52.557Z,18.70
2019-05-20T04:37:21.385Z,18.60
2019-05-20T04:39:50.204Z,18.40
2019-05-20T04:42:18.989Z,18.10
2019-05-20T04:44:47.782Z,17.90
2019-05-20T04:47:16.547Z,17.60
2019-05-20T04:49:45.376Z,17.50
2019-05-20T04:55:54.976Z,17.50
2019-05-20T04:58:23.769Z,17.60
2019-05-20T05:00:54.871Z,17.70
2019-05-20T05:03:24.223Z,17.80
2019-05-20T05:05:53.218Z,18.00
2019-05-20T05:08:22.427Z,18.10
2019-05-20T05:10:51.587Z,18.10
2019-05-20T05:13:21.383Z,18.20
2019-05-20T05:15:50.163Z,18.30
2019-05-20T05:18:19.099Z,18.40
2019-05-20T05:20:48.385Z,18.60
2019-05-20T05:23:17.344Z,18.80
2019-05-20T05:25:46.530Z,19.10
2019-05-20T05:28:15.336Z,19.40
2019-05-20T05:30:45.835Z,20.00
2019-05-20T05:33:14.642Z,21.20
2019-05-20T05:35:52.710Z,23.10
2019-05-20T05:38:14.005Z,24.70
2019-05-20T05:40:42.960Z,25.50
2019-05-20T05:43:11.891Z,25.70
2019-05-20T05:45:40.696Z,25.70
2019-05-20T05:48:09.497Z,25.40
2019-05-20T05:50:38.270Z,25.00
2019-05-20T05:53:07.158Z,24.50
2019-05-20T05:55:36.038Z,24.00
2019-05-20T05:58:08.392Z,23.90
2019-05-20T06:00:35.367Z,24.00
2019-05-20T06:03:04.155Z,24.00
2019-05-20T06:05:32.979Z,23.90
2019-05-20T06:08:01.825Z,23.70
2019-05-20T06:10:30.628Z,23.50
2019-05-20T06:12:59.407Z,23.30
2019-05-20T06:15:28.221Z,23.00
2019-05-20T06:17:56.984Z,22.70
2019-05-20T06:20:25.893Z,22.50
2019-05-20T06:22:54.676Z,22.50
2019-05-20T06:25:23.433Z,22.70
2019-05-20T06:27:52.228Z,23.00
2019-05-20T06:30:23.982Z,24.20
2019-05-20T06:32:53.050Z,26.20
2019-05-20T06:35:21.837Z,28.20
2019-05-20T06:37:52.262Z,29.70
2019-05-20T06:40:21.059Z,30.30
2019-05-20T06:42:49.848Z,30.80
2019-05-20T06:45:18.641Z,31.00
2019-05-20T06:47:47.483Z,30.90
2019-05-20T06:50:16.943Z,30.00
2019-05-20T06:52:45.761Z,28.90
2019-05-20T06:55:15.287Z,27.80
2019-05-20T06:57:44.081Z,27.00
2019-05-20T07:00:13.665Z,26.50
2019-05-20T07:02:42.446Z,26.30
2019-05-20T07:05:11.535Z,26.40
2019-05-20T07:07:40.411Z,26.90
2019-05-20T07:10:10.517Z,27.20
2019-05-20T07:12:41.576Z,27.20
2019-05-20T07:15:10.203Z,27.00
2019-05-20T07:17:39.055Z,26.80
2019-05-20T07:20:07.993Z,27.00
2019-05-20T07:22:53.897Z,27.00
2019-05-20T07:25:07.669Z,27.10
2019-05-20T07:27:36.570Z,27.10
2019-05-20T07:30:09.643Z,27.00
2019-05-20T07:32:38.499Z,27.10
2019-05-20T07:35:08.283Z,27.00
2019-05-20T07:37:37.178Z,27.20
2019-05-20T07:40:07.114Z,27.40
2019-05-20T07:42:35.912Z,27.30
2019-05-20T07:45:07.039Z,27.30
2019-05-20T07:47:36.104Z,27.40
2019-05-20T07:50:09.394Z,27.40
2019-05-20T07:52:38.674Z,27.60
2019-05-20T07:55:08.825Z,27.90
2019-05-20T07:57:40.751Z,27.90
2019-05-20T08:00:10.302Z,27.90
2019-05-20T08:02:39.492Z,27.70
2019-05-20T08:05:09.519Z,27.50
2019-05-20T08:07:51.377Z,27.40
2019-05-20T08:10:09.249Z,27.30
2019-05-20T08:12:38.090Z,27.80
2019-05-20T08:15:08.201Z,28.50
2019-05-20T08:17:36.964Z,30.00
2019-05-20T08:20:07.302Z,31.30
2019-05-20T08:22:36.105Z,32.80
2019-05-20T08:25:06.832Z,33.90
2019-05-20T08:27:35.707Z,34.40
2019-05-20T08:30:06.729Z,35.00
2019-05-20T08:32:35.545Z,34.90
2019-05-20T08:35:06.079Z,34.20
2019-05-20T08:37:44.799Z,33.10
2019-05-20T08:40:06.534Z,31.80
2019-05-20T08:42:35.328Z,30.70
2019-05-20T08:45:06.302Z,29.80
2019-05-20T08:47:35.059Z,29.10
2019-05-20T08:50:08.230Z,28.90
2019-05-20T08:52:35.959Z,28.90
2019-05-20T08:55:05.288Z,29.00
2019-05-20T08:57:34.191Z,29.00
2019-05-20T09:00:03.507Z,28.80
2019-05-20T09:02:32.446Z,28.90
2019-05-20T09:05:01.234Z,28.90
2019-05-20T09:07:30.046Z,29.10
2019-05-20T09:09:58.846Z,29.20
2019-05-20T09:12:27.675Z,29.30
2019-05-20T09:14:56.464Z,29.20
2019-05-20T09:17:25.235Z,28.90
2019-05-20T09:19:54.168Z,28.60
2019-05-20T09:22:22.931Z,28.40
2019-05-20T09:24:51.896Z,28.30
2019-05-20T09:27:20.825Z,28.40
2019-05-20T09:29:49.620Z,28.40
2019-05-20T09:32:18.456Z,28.40
2019-05-20T09:34:47.534Z,28.40
2019-05-20T09:37:16.368Z,28.40
2019-05-20T09:39:45.138Z,28.40
2019-05-20T09:42:13.947Z,28.50
2019-05-20T09:44:42.765Z,28.50
2019-05-20T09:47:11.541Z,28.50
2019-05-20T09:49:40.425Z,28.30
2019-05-20T09:52:09.312Z,28.20
2019-05-20T09:54:38.138Z,28.20
2019-05-20T09:57:06.879Z,28.50
2019-05-20T09:59:43.447Z,28.70
2019-05-20T10:02:06.088Z,28.70
2019-05-20T10:04:34.962Z,28.50
2019-05-20T10:07:03.791Z,28.30
2019-05-20T10:09:32.570Z,28.20
2019-05-20T10:12:01.436Z,28.10
2019-05-20T10:14:30.212Z,27.90
2019-05-20T10:16:58.956Z,27.80
2019-05-20T10:19:27.736Z,27.90
2019-05-20T10:21:56.519Z,27.90
2019-05-20T10:24:25.355Z,28.00
2019-05-20T10:26:54.237Z,28.00
2019-05-20T10:29:23.055Z,28.00
2019-05-20T10:31:51.869Z,27.90
2019-05-20T10:34:20.656Z,28.00
2019-05-20T10:36:49.480Z,28.10
2019-05-20T10:39:18.265Z,28.20
2019-05-20T10:41:47.090Z,28.20
2019-05-20T10:44:15.914Z,28.10
2019-05-20T10:46:44.780Z,28.10
2019-05-20T10:49:13.582Z,28.00
2019-05-20T10:51:42.398Z,27.90
2019-05-20T10:54:11.166Z,27.90
2019-05-20T10:56:39.918Z,28.00
2019-05-20T10:59:11.965Z,28.00
2019-05-20T11:01:39.282Z,28.00
2019-05-20T11:04:08.136Z,28.00
2019-05-20T11:06:36.984Z,28.00
2019-05-20T11:09:14.008Z,28.10
2019-05-20T11:11:39.451Z,28.10
2019-05-20T11:14:07.452Z,28.10
2019-05-20T11:16:36.326Z,28.00
2019-05-20T11:19:05.125Z,27.90
2019-05-20T11:21:34.004Z,27.90
2019-05-20T11:24:03.416Z,27.90
2019-05-20T11:26:32.164Z,27.90
2019-05-20T11:29:01.457Z,28.00
2019-05-20T11:31:30.225Z,28.00
2019-05-20T11:33:59.059Z,28.10
2019-05-20T11:36:27.910Z,28.20
2019-05-20T11:38:56.729Z,28.30
2019-05-20T11:41:52.135Z,28.30
2019-05-20T11:43:56.334Z,28.30
2019-05-20T11:46:25.231Z,28.20
2019-05-20T11:48:54.027Z,28.10
2019-05-20T11:51:22.844Z,28.20
2019-05-20T11:53:51.625Z,28.30
2019-05-20T11:56:20.437Z,28.40
2019-05-20T11:58:49.187Z,28.40
2019-05-20T12:01:18.116Z,28.40
2019-05-20T12:03:46.873Z,28.40
2019-05-20T12:06:15.687Z,28.40
2019-05-20T12:08:44.469Z,28.50
2019-05-20T12:11:13.211Z,28.50
2019-05-20T12:13:42.121Z,28.60
2019-05-20T12:16:10.945Z,28.70
2019-05-20T12:18:39.769Z,28.90
2019-05-20T12:21:08.619Z,29.00
2019-05-20T12:23:37.407Z,29.30
2019-05-20T12:26:06.236Z,29.30
2019-05-20T12:28:35.025Z,29.20
2019-05-20T12:31:03.858Z,29.20
2019-05-20T12:33:32.713Z,29.20
2019-05-20T12:36:01.489Z,29.20
2019-05-20T12:38:30.310Z,29.00
2019-05-20T12:40:59.101Z,28.80
2019-05-20T12:43:27.845Z,28.70
2019-05-20T12:45:56.763Z,28.50
2019-05-20T12:48:25.577Z,28.40
2019-05-20T12:50:54.372Z,28.30
2019-05-20T12:53:23.146Z,28.30
2019-05-20T12:55:51.974Z,28.40
2019-05-20T12:58:20.866Z,28.50
2019-05-20T13:00:49.745Z,28.70
2019-05-20T13:03:18.787Z,28.80
2019-05-20T13:05:47.834Z,28.70
2019-05-20T13:08:16.644Z,28.70
2019-05-20T13:10:45.432Z,28.60
2019-05-20T13:13:14.168Z,28.60
2019-05-20T13:15:42.923Z,28.50
2019-05-20T13:18:11.730Z,28.60
2019-05-20T13:20:40.523Z,28.60
2019-05-20T13:23:11.543Z,28.50
2019-05-20T13:25:39.780Z,28.50
2019-05-20T13:28:08.536Z,28.50
2019-05-20T13:30:37.346Z,28.50
2019-05-20T13:33:06.161Z,28.50
2019-05-20T13:35:34.962Z,28.50
2019-05-20T13:38:03.731Z,28.60
2019-05-20T13:40:45.760Z,28.60
2019-05-20T13:43:03.078Z,28.60
2019-05-20T13:45:31.932Z,28.60
2019-05-20T13:48:00.744Z,28.50
2019-05-20T13:50:29.608Z,28.50
2019-05-20T13:52:58.434Z,28.40
2019-05-20T13:55:27.225Z,28.30
2019-05-20T13:57:56.076Z,28.30
2019-05-20T14:00:25.007Z,28.30
2019-05-20T14:02:53.848Z,28.20
2019-05-20T14:05:22.661Z,28.00
2019-05-20T14:07:51.484Z,28.00
2019-05-20T14:10:20.264Z,27.90
2019-05-20T14:12:49.169Z,27.80
2019-05-20T14:15:17.986Z,27.80
2019-05-20T14:17:47.015Z,27.70
2019-05-20T14:20:16.224Z,27.70
2019-05-20T14:22:44.970Z,27.70
2019-05-20T14:25:14.150Z,27.70
2019-05-20T14:27:43.023Z,27.70
2019-05-20T14:30:12.181Z,27.60
2019-05-20T14:32:41.109Z,27.70
2019-05-20T14:35:10.198Z,27.80
2019-05-20T14:37:38.953Z,27.90
2019-05-20T14:40:08.429Z,28.00
2019-05-20T14:42:37.393Z,28.10
2019-05-20T14:45:07.664Z,28.30
2019-05-20T14:47:36.466Z,28.30
2019-05-20T14:50:07.517Z,28.30
2019-05-20T14:52:36.441Z,28.30
2019-05-20T14:55:06.134Z,28.20
2019-05-20T14:57:34.871Z,28.10
2019-05-20T15:00:04.555Z,28.00
2019-05-20T15:02:33.405Z,28.10
2019-05-20T15:05:02.515Z,28.10
2019-05-20T15:07:31.641Z,28.20
2019-05-20T15:10:00.501Z,28.20
2019-05-20T15:12:29.379Z,28.30
2019-05-20T15:14:58.271Z,28.30
2019-05-20T15:17:27.140Z,28.30
2019-05-20T15:19:55.986Z,28.30
2019-05-20T15:22:24.964Z,28.30
2019-05-20T15:24:53.733Z,28.40
2019-05-20T15:27:22.581Z,28.40
2019-05-20T15:29:51.406Z,28.50
2019-05-20T15:32:20.159Z,28.50
2019-05-20T15:34:48.991Z,28.50
2019-05-20T15:37:17.782Z,28.50
2019-05-20T15:39:46.680Z,28.40
2019-05-20T15:42:15.460Z,28.40
2019-05-20T15:44:44.325Z,28.40
2019-05-20T15:47:13.185Z,28.40
2019-05-20T15:49:41.941Z,28.20
2019-05-20T15:52:10.843Z,28.10
2019-05-20T15:54:39.677Z,28.10
2019-05-20T15:57:08.527Z,28.10
2019-05-20T15:59:46.044Z,28.10
2019-05-20T16:02:07.900Z,28.10
2019-05-20T16:04:36.730Z,28.10
2019-05-20T16:07:05.540Z,28.00
2019-05-20T16:09:34.346Z,27.90
2019-05-20T16:12:03.205Z,27.80
2019-05-20T16:14:31.963Z,27.70
2019-05-20T16:17:00.812Z,27.60
2019-05-20T16:19:29.584Z,27.60
2019-05-20T16:21:58.392Z,27.60
2019-05-20T16:24:27.261Z,27.50
2019-05-20T16:26:56.042Z,27.50
2019-05-20T16:29:24.850Z,27.50
2019-05-20T16:31:53.671Z,27.50
2019-05-20T16:34:22.551Z,27.50
2019-05-20T16:36:51.349Z,27.50
2019-05-20T16:39:20.156Z,27.60
2019-05-20T16:41:48.976Z,27.60
2019-05-20T16:44:17.847Z,27.50
2019-05-20T16:46:46.689Z,27.50
2019-05-20T16:49:15.503Z,27.40
2019-05-20T16:51:44.257Z,27.40
2019-05-20T16:54:13.325Z,27.30
2019-05-20T16:56:42.199Z,27.30
2019-05-20T16:59:11.074Z,27.20
2019-05-20T17:01:46.224Z,27.10
2019-05-20T17:04:10.499Z,27.00
2019-05-20T17:06:39.267Z,27.00
2019-05-20T17:09:08.434Z,26.90
2019-05-20T17:11:37.219Z,26.80
2019-05-20T17:14:06.132Z,26.70
2019-05-20T17:16:34.990Z,26.60
2019-05-20T17:19:03.785Z,26.50
2019-05-20T17:21:32.656Z,26.40
2019-05-20T17:24:01.533Z,26.40
2019-05-20T17:29:59.026Z,26.20
2019-05-20T17:32:27.804Z,26.10
2019-05-20T17:34:56.599Z,26.00
2019-05-20T17:37:25.442Z,25.90
2019-05-20T17:39:54.245Z,25.80
2019-05-20T17:42:23.112Z,25.70
2019-05-20T17:44:51.959Z,25.60
2019-05-20T17:47:20.776Z,25.50
2019-05-20T17:49:49.723Z,25.40
2019-05-20T17:52:21.904Z,25.40
2019-05-20T17:54:50.816Z,25.30
2019-05-20T17:57:19.594Z,25.20
2019-05-20T17:59:48.371Z,25.10
2019-05-20T18:02:17.235Z,25.00
2019-05-20T18:04:46.020Z,24.90
2019-05-20T18:07:14.881Z,24.90
2019-05-20T18:09:47.695Z,24.80
2019-05-20T18:12:16.788Z,24.70
2019-05-20T18:14:47.188Z,24.70
2019-05-20T18:17:20.117Z,24.50
2019-05-20T18:19:48.971Z,24.40
2019-05-20T18:22:17.754Z,24.40
2019-05-20T18:24:46.546Z,24.30
2019-05-20T18:27:15.319Z,24.20
2019-05-20T18:29:44.145Z,24.10
2019-05-20T18:36:08.899Z,23.90
2019-05-20T18:38:37.710Z,23.80
2019-05-20T18:41:06.573Z,23.80
2019-05-20T18:43:35.351Z,23.70
2019-05-20T18:46:04.481Z,23.60
2019-05-20T18:48:33.267Z,23.60
2019-05-20T18:51:02.109Z,23.50
2019-05-20T18:53:30.935Z,23.50
2019-05-20T18:55:59.845Z,23.50
2019-05-20T18:58:28.690Z,23.40
2019-05-20T19:00:57.456Z,23.40
2019-05-20T19:03:27.127Z,23.40
2019-05-20T19:05:56.801Z,23.30
2019-05-20T19:08:25.723Z,23.30
2019-05-20T19:10:54.645Z,23.20
2019-05-20T19:13:23.554Z,23.20
2019-05-20T19:15:52.403Z,23.10
2019-05-20T19:18:21.180Z,23.10
2019-05-20T19:20:50.000Z,23.00
2019-05-20T19:23:18.774Z,23.00
2019-05-20T19:25:47.626Z,23.10
2019-05-20T19:28:16.348Z,23.10
2019-05-20T19:30:45.128Z,23.10
2019-05-20T19:33:15.298Z,23.10
2019-05-20T19:35:44.081Z,23.10
2019-05-20T19:38:12.938Z,23.00
2019-05-20T19:40:41.876Z,23.00
2019-05-20T19:43:10.720Z,23.00
2019-05-20T19:45:39.581Z,23.00
2019-05-20T19:48:08.452Z,23.00
2019-05-20T19:50:38.552Z,23.00
2019-05-20T19:53:07.492Z,22.90
2019-05-20T19:55:36.402Z,22.90
2019-05-20T19:58:05.773Z,22.90
2019-05-20T20:00:38.198Z,22.80
2019-05-20T20:03:08.399Z,22.70
2019-05-20T20:09:18.152Z,22.50
2019-05-20T20:11:47.040Z,22.40
2019-05-20T20:14:15.810Z,22.30
2019-05-20T20:16:44.621Z,22.20
2019-05-20T20:19:16.474Z,22.10
2019-05-20T20:21:45.292Z,22.00
2019-05-20T20:24:14.110Z,21.90
2019-05-20T20:26:42.855Z,21.80
2019-05-20T20:29:11.682Z,21.80
2019-05-20T20:31:40.464Z,21.70
2019-05-20T20:34:09.346Z,21.70
2019-05-20T20:36:38.165Z,21.60
2019-05-20T20:39:07.308Z,21.50
2019-05-20T20:41:36.113Z,21.40
2019-05-20T20:44:05.033Z,21.40
2019-05-20T20:46:33.836Z,21.30
2019-05-20T20:49:02.837Z,21.10
2019-05-20T20:51:31.615Z,21.00
2019-05-20T20:54:00.359Z,20.80
2019-05-20T20:56:29.159Z,20.60
2019-05-20T20:58:57.938Z,20.30
2019-05-20T21:01:26.779Z,20.30
2019-05-20T21:03:55.518Z,20.20
2019-05-20T21:06:24.298Z,20.10
2019-05-20T21:08:53.134Z,20.00
2019-05-20T21:11:22.005Z,19.90
2019-05-20T21:13:50.802Z,19.70
2019-05-20T21:16:19.603Z,19.50
2019-05-20T21:18:48.346Z,19.30
2019-05-20T21:21:17.118Z,19.20
2019-05-20T21:23:45.950Z,19.10
2019-05-20T21:26:14.722Z,19.00
2019-05-20T21:28:43.521Z,19.00
2019-05-20T21:31:12.368Z,19.00
2019-05-20T21:33:41.254Z,19.00
2019-05-20T21:36:10.055Z,19.10
2019-05-20T21:38:38.864Z,19.20
2019-05-20T21:41:07.647Z,19.10
2019-05-20T21:43:36.441Z,18.90
2019-05-20T21:46:05.308Z,18.40
2019-05-20T21:48:34.330Z,17.90
2019-05-20T21:51:04.153Z,17.60
2019-05-20T21:53:32.933Z,17.40
2019-05-20T21:56:01.804Z,17.20
2019-05-20T21:58:30.687Z,17.10
2019-05-20T22:00:59.822Z,17.10
2019-05-20T22:03:28.710Z,17.00
2019-05-20T22:05:57.595Z,17.00
2019-05-20T22:08:26.407Z,17.00
2019-05-20T22:10:55.327Z,17.10
2019-05-20T22:13:24.120Z,17.10
2019-05-20T22:15:52.908Z,17.00
2019-05-20T22:18:21.694Z,17.00
2019-05-20T22:20:50.528Z,17.10
2019-05-20T22:23:29.759Z,17.00
2019-05-20T22:25:58.635Z,17.00
2019-05-20T22:31:56.238Z,17.00
2019-05-20T22:34:25.007Z,17.10
2019-05-20T22:36:53.815Z,17.00
2019-05-20T22:39:22.649Z,17.00
2019-05-20T22:41:51.411Z,17.00
2019-05-20T22:44:20.303Z,17.00
2019-05-20T22:46:49.111Z,17.00
2019-05-20T22:49:17.919Z,17.00
2019-05-20T22:51:46.772Z,17.00
2019-05-20T22:54:15.684Z,17.00
2019-05-20T22:56:44.498Z,17.00
2019-05-20T22:59:13.355Z,17.00
2019-05-20T23:01:42.192Z,17.00
2019-05-20T23:04:11.078Z,17.10
2019-05-20T23:06:39.892Z,17.10
2019-05-20T23:09:10.788Z,17.10
2019-05-20T23:11:39.318Z,17.20
2019-05-20T23:14:08.169Z,17.20
2019-05-20T23:16:36.964Z,17.20
2019-05-20T23:19:05.788Z,17.20
2019-05-20T23:21:34.578Z,17.30
2019-05-20T23:24:03.359Z,17.30
2019-05-20T23:26:32.155Z,17.30
2019-05-20T23:29:00.999Z,17.40
2019-05-20T23:31:29.919Z,17.40
2019-05-20T23:34:11.664Z,17.40
2019-05-20T23:36:29.150Z,17.50
2019-05-20T23:38:57.928Z,17.50
2019-05-20T23:41:26.756Z,17.50
2019-05-20T23:43:55.529Z,17.60
2019-05-20T23:46:24.394Z,17.50
2019-05-20T23:48:53.183Z,17.60
2019-05-20T23:51:22.025Z,17.60
2019-05-20T23:53:50.766Z,17.60
2019-05-20T23:56:19.828Z,17.60
2019-05-20T23:58:48.768Z,17.60
